Terminal Aerodrome Forecast
Issued by NWS Sterling, VA

Home | Current Version | Previous Version | Text Only | Print | Product List | Glossary On
Versions: 1 2 3 4 5 6 7 8 9 10 11 12
000
FTUS41 KLWX 010500 RRA
TAFCHO
TAF
KCHO 010543Z 0106/0206 00000KT P6SM BKN050 BKN100
     FM011200 00000KT P6SM -SHRA BKN050 OVC100
     FM020000 VRB03KT P6SM SCT025 OVC050
     FM020300 VRB03KT P6SM BKN020 OVC025=

USA.gov is the U.S. government's official web portal to all federal, state and local government web resources and services.